Airport Name : Caumont

Other Name : Avignon

ICAO : LFMV

IATA : AVN

FAA :

Latitude : 43.9073

Longitude : 4.901831

Country : France

Local Date and Time : 22 Jan 2021 13:16

 

TAF (Terminal Aerodrome Forecast)

TAF AMD LFMV 221153Z 2211/2309 14015G30KT 9999 BKN030 TEMPO 2212/2217 2000 SHRA BKN020 BKN030CB BECMG 2215/2217 24010KT BECMG 2218/2221 31015G35KT CAVOK

 

METAR (METeorological Aerodrome Report)

LFMV 221200Z AUTO 14011KT 9999 -RA BKN018/// BKN025/// BKN038/// ///CB 13/12 Q0993 TEMPO 2000 SHRA BECMG 24010KT

LFMV 221130Z AUTO 15017KT 6000 RA BKN019/// BKN031/// BKN049/// ///CB 13/11 Q0994 TEMPO 2000 SHRA BECMG 24010KT

LFMV 221100Z AUTO 14015KT 9999 BKN021/// BKN026/// OVC036/// ///TCU 14/10 Q0994 TEMPO 2000 SHRA BECMG 14015G30KT

LFMV 221030Z AUTO 15018G30KT 9999 BKN024 BKN029 BKN038 14/09 Q0995 TEMPO 2000 SHRA BKN020 BKN030TCU

LFMV 221000Z AUTO 14016KT 100V160 9999 BKN033 OVC042 15/09 Q0995 TEMPO 2000 SHRA BKN020 BKN030TCU BECMG 14015G30KT

LFMV 220930Z AUTO 14017G28KT 9999 BKN041 OVC220 15/09 Q0996 TEMPO 2000 SHRA BKN020 BKN030TCU

LFMV 220900Z AUTO 13014KT 100V170 9999 SCT038 BKN190 15/08 Q0996 TEMPO 2000 SHRA BKN020 BKN030TCU BECMG 14015G30KT

LFMV 220830Z AUTO 11013KT 9999 FEW029 BKN036 BKN140 13/08 Q0996 TEMPO 2000 SHRA BKN020 BKN030TCU BECMG 14015G30KT

To Charter a Jet Click here.